sensor_id;sensor_type;location;lat;lon;timestamp;P1;durP1;ratioP1;P2;durP2;ratioP2
3563;SDS011;1796;52.388;13.096;2023-05-20T00:01:55;5.40;;;3.27;;
3563;SDS011;1796;52.388;13.096;2023-05-20T00:04:22;3.80;;;3.50;;
3563;SDS011;1796;52.388;13.096;2023-05-20T00:06:49;3.60;;;3.30;;
3563;SDS011;1796;52.388;13.096;2023-05-20T00:09:15;3.43;;;3.13;;
3563;SDS011;1796;52.388;13.096;2023-05-20T00:11:42;7.70;;;3.60;;
3563;SDS011;1796;52.388;13.096;2023-05-20T00:14:12;2.90;;;2.70;;
3563;SDS011;1796;52.388;13.096;2023-05-20T00:16:39;5.10;;;3.73;;
3563;SDS011;1796;52.388;13.096;2023-05-20T00:19:07;7.20;;;3.57;;
3563;SDS011;1796;52.388;13.096;2023-05-20T00:21:34;15.17;;;3.20;;
3563;SDS011;1796;52.388;13.096;2023-05-20T00:24:01;7.73;;;3.63;;
3563;SDS011;1796;52.388;13.096;2023-05-20T00:26:28;5.43;;;3.60;;
3563;SDS011;1796;52.388;13.096;2023-05-20T00:28:55;3.70;;;3.00;;
3563;SDS011;1796;52.388;13.096;2023-05-20T00:31:24;3.00;;;2.80;;
3563;SDS011;1796;52.388;13.096;2023-05-20T00:33:51;3.70;;;3.30;;
3563;SDS011;1796;52.388;13.096;2023-05-20T00:36:18;3.53;;;3.10;;
3563;SDS011;1796;52.388;13.096;2023-05-20T00:38:45;3.43;;;3.20;;
3563;SDS011;1796;52.388;13.096;2023-05-20T00:41:11;6.70;;;3.87;;
3563;SDS011;1796;52.388;13.096;2023-05-20T00:43:38;4.00;;;3.10;;
3563;SDS011;1796;52.388;13.096;2023-05-20T00:46:05;6.50;;;3.40;;
3563;SDS011;1796;52.388;13.096;2023-05-20T00:48:36;3.40;;;3.10;;
3563;SDS011;1796;52.388;13.096;2023-05-20T00:51:06;4.30;;;3.90;;
3563;SDS011;1796;52.388;13.096;2023-05-20T00:53:33;4.23;;;3.83;;
3563;SDS011;1796;52.388;13.096;2023-05-20T00:56:01;3.70;;;3.30;;
3563;SDS011;1796;52.388;13.096;2023-05-20T00:58:28;7.43;;;3.63;;
3563;SDS011;1796;52.388;13.096;2023-05-20T01:00:55;7.13;;;4.10;;
3563;SDS011;1796;52.388;13.096;2023-05-20T01:03:23;5.70;;;3.37;;
3563;SDS011;1796;52.388;13.096;2023-05-20T01:05:51;4.47;;;4.07;;
3563;SDS011;1796;52.388;13.096;2023-05-20T01:08:18;5.53;;;3.30;;
3563;SDS011;1796;52.388;13.096;2023-05-20T01:10:45;4.40;;;3.23;;
3563;SDS011;1796;52.388;13.096;2023-05-20T01:13:19;9.53;;;3.47;;
3563;SDS011;1796;52.388;13.096;2023-05-20T01:15:49;3.50;;;3.20;;
3563;SDS011;1796;52.388;13.096;2023-05-20T01:18:18;11.20;;;3.57;;
3563;SDS011;1796;52.388;13.096;2023-05-20T01:20:47;6.53;;;3.17;;
3563;SDS011;1796;52.388;13.096;2023-05-20T01:23:18;9.50;;;3.10;;
3563;SDS011;1796;52.388;13.096;2023-05-20T01:25:44;3.73;;;3.43;;
3563;SDS011;1796;52.388;13.096;2023-05-20T01:28:11;7.43;;;4.17;;
3563;SDS011;1796;52.388;13.096;2023-05-20T01:30:43;3.60;;;3.30;;
3563;SDS011;1796;52.388;13.096;2023-05-20T01:33:16;4.33;;;3.70;;
3563;SDS011;1796;52.388;13.096;2023-05-20T01:35:45;3.43;;;3.20;;
3563;SDS011;1796;52.388;13.096;2023-05-20T01:38:13;4.30;;;3.40;;
3563;SDS011;1796;52.388;13.096;2023-05-20T01:40:42;5.57;;;3.30;;
3563;SDS011;1796;52.388;13.096;2023-05-20T01:43:11;7.07;;;3.30;;
3563;SDS011;1796;52.388;13.096;2023-05-20T01:45:40;7.70;;;3.40;;
3563;SDS011;1796;52.388;13.096;2023-05-20T01:48:07;4.00;;;2.93;;
3563;SDS011;1796;52.388;13.096;2023-05-20T01:50:35;4.93;;;3.60;;
3563;SDS011;1796;52.388;13.096;2023-05-20T01:53:02;3.67;;;3.37;;
3563;SDS011;1796;52.388;13.096;2023-05-20T01:55:29;5.73;;;3.30;;
3563;SDS011;1796;52.388;13.096;2023-05-20T01:57:58;5.73;;;3.37;;
3563;SDS011;1796;52.388;13.096;2023-05-20T02:00:25;10.90;;;3.50;;
3563;SDS011;1796;52.388;13.096;2023-05-20T02:02:52;6.73;;;4.10;;
3563;SDS011;1796;52.388;13.096;2023-05-20T02:05:19;5.27;;;3.70;;
3563;SDS011;1796;52.388;13.096;2023-05-20T02:07:45;5.30;;;3.43;;
3563;SDS011;1796;52.388;13.096;2023-05-20T02:10:12;7.47;;;3.70;;
3563;SDS011;1796;52.388;13.096;2023-05-20T02:12:39;5.07;;;3.80;;
3563;SDS011;1796;52.388;13.096;2023-05-20T02:15:08;3.43;;;3.13;;
3563;SDS011;1796;52.388;13.096;2023-05-20T02:17:35;3.57;;;3.27;;
3563;SDS011;1796;52.388;13.096;2023-05-20T02:20:04;3.83;;;3.40;;
3563;SDS011;1796;52.388;13.096;2023-05-20T02:22:32;4.13;;;3.73;;
3563;SDS011;1796;52.388;13.096;2023-05-20T02:24:58;6.40;;;3.30;;
3563;SDS011;1796;52.388;13.096;2023-05-20T02:27:25;4.40;;;3.37;;
3563;SDS011;1796;52.388;13.096;2023-05-20T02:29:52;3.60;;;3.07;;
3563;SDS011;1796;52.388;13.096;2023-05-20T02:32:20;5.70;;;3.30;;
3563;SDS011;1796;52.388;13.096;2023-05-20T02:34:52;3.60;;;3.30;;
3563;SDS011;1796;52.388;13.096;2023-05-20T02:37:18;4.90;;;3.67;;
3563;SDS011;1796;52.388;13.096;2023-05-20T02:39:45;4.77;;;3.80;;
3563;SDS011;1796;52.388;13.096;2023-05-20T02:42:12;7.30;;;3.70;;
3563;SDS011;1796;52.388;13.096;2023-05-20T02:44:39;5.70;;;3.70;;
3563;SDS011;1796;52.388;13.096;2023-05-20T02:47:06;6.40;;;3.67;;
3563;SDS011;1796;52.388;13.096;2023-05-20T02:49:34;4.10;;;3.80;;
3563;SDS011;1796;52.388;13.096;2023-05-20T02:52:01;8.47;;;3.67;;
3563;SDS011;1796;52.388;13.096;2023-05-20T02:54:28;6.90;;;3.70;;
3563;SDS011;1796;52.388;13.096;2023-05-20T02:56:55;4.67;;;3.40;;
3563;SDS011;1796;52.388;13.096;2023-05-20T02:59:21;8.23;;;3.80;;
3563;SDS011;1796;52.388;13.096;2023-05-20T03:01:48;20.60;;;4.10;;
3563;SDS011;1796;52.388;13.096;2023-05-20T03:04:15;4.10;;;3.40;;
3563;SDS011;1796;52.388;13.096;2023-05-20T03:06:46;5.13;;;3.67;;
3563;SDS011;1796;52.388;13.096;2023-05-20T03:09:16;4.50;;;3.60;;
3563;SDS011;1796;52.388;13.096;2023-05-20T03:11:43;5.13;;;3.80;;
3563;SDS011;1796;52.388;13.096;2023-05-20T03:14:11;8.43;;;3.87;;
3563;SDS011;1796;52.388;13.096;2023-05-20T03:16:38;4.77;;;4.20;;
3563;SDS011;1796;52.388;13.096;2023-05-20T03:19:05;8.20;;;3.70;;
3563;SDS011;1796;52.388;13.096;2023-05-20T03:21:32;5.43;;;4.30;;
3563;SDS011;1796;52.388;13.096;2023-05-20T03:24:00;8.67;;;3.63;;
3563;SDS011;1796;52.388;13.096;2023-05-20T03:26:27;5.93;;;3.63;;
3563;SDS011;1796;52.388;13.096;2023-05-20T03:28:54;8.67;;;4.27;;
3563;SDS011;1796;52.388;13.096;2023-05-20T03:31:21;7.23;;;4.30;;
3563;SDS011;1796;52.388;13.096;2023-05-20T03:33:48;4.50;;;3.40;;
3563;SDS011;1796;52.388;13.096;2023-05-20T03:36:15;5.40;;;4.10;;
3563;SDS011;1796;52.388;13.096;2023-05-20T03:38:42;4.70;;;3.90;;
3563;SDS011;1796;52.388;13.096;2023-05-20T03:41:10;6.00;;;3.63;;
3563;SDS011;1796;52.388;13.096;2023-05-20T03:43:37;6.40;;;4.23;;
3563;SDS011;1796;52.388;13.096;2023-05-20T03:46:04;10.10;;;3.80;;
3563;SDS011;1796;52.388;13.096;2023-05-20T03:48:31;7.03;;;4.17;;
3563;SDS011;1796;52.388;13.096;2023-05-20T03:50:57;5.77;;;4.20;;
3563;SDS011;1796;52.388;13.096;2023-05-20T03:53:26;4.33;;;3.93;;
3563;SDS011;1796;52.388;13.096;2023-05-20T03:55:53;6.90;;;4.27;;
3563;SDS011;1796;52.388;13.096;2023-05-20T03:58:21;7.70;;;4.23;;
3563;SDS011;1796;52.388;13.096;2023-05-20T04:00:48;6.33;;;4.00;;
3563;SDS011;1796;52.388;13.096;2023-05-20T04:03:14;10.50;;;4.33;;
3563;SDS011;1796;52.388;13.096;2023-05-20T04:05:41;12.30;;;4.80;;
3563;SDS011;1796;52.388;13.096;2023-05-20T04:08:08;4.43;;;4.03;;
3563;SDS011;1796;52.388;13.096;2023-05-20T04:10:37;4.10;;;3.80;;
3563;SDS011;1796;52.388;13.096;2023-05-20T04:13:06;5.87;;;4.63;;
3563;SDS011;1796;52.388;13.096;2023-05-20T04:15:35;6.23;;;4.73;;
3563;SDS011;1796;52.388;13.096;2023-05-20T04:18:02;6.97;;;4.70;;
3563;SDS011;1796;52.388;13.096;2023-05-20T04:20:29;6.03;;;4.20;;
3563;SDS011;1796;52.388;13.096;2023-05-20T04:22:57;7.60;;;4.50;;
3563;SDS011;1796;52.388;13.096;2023-05-20T04:25:24;7.10;;;4.40;;
3563;SDS011;1796;52.388;13.096;2023-05-20T04:27:51;6.43;;;5.20;;
3563;SDS011;1796;52.388;13.096;2023-05-20T04:30:19;10.53;;;4.43;;
3563;SDS011;1796;52.388;13.096;2023-05-20T04:32:48;8.77;;;4.87;;
3563;SDS011;1796;52.388;13.096;2023-05-20T04:35:15;9.77;;;4.40;;
3563;SDS011;1796;52.388;13.096;2023-05-20T04:37:42;7.23;;;4.60;;
3563;SDS011;1796;52.388;13.096;2023-05-20T04:40:12;7.83;;;4.60;;
3563;SDS011;1796;52.388;13.096;2023-05-20T04:42:39;9.33;;;4.30;;
3563;SDS011;1796;52.388;13.096;2023-05-20T04:45:06;8.40;;;4.37;;
3563;SDS011;1796;52.388;13.096;2023-05-20T04:47:33;7.20;;;4.83;;
3563;SDS011;1796;52.388;13.096;2023-05-20T04:50:04;4.97;;;4.50;;
3563;SDS011;1796;52.388;13.096;2023-05-20T04:52:34;8.17;;;4.70;;
3563;SDS011;1796;52.388;13.096;2023-05-20T04:55:01;5.73;;;4.00;;
3563;SDS011;1796;52.388;13.096;2023-05-20T04:57:28;7.10;;;4.73;;
3563;SDS011;1796;52.388;13.096;2023-05-20T04:59:58;4.77;;;4.30;;
3563;SDS011;1796;52.388;13.096;2023-05-20T05:02:26;8.10;;;4.70;;
3563;SDS011;1796;52.388;13.096;2023-05-20T05:04:53;8.23;;;5.00;;
3563;SDS011;1796;52.388;13.096;2023-05-20T05:07:21;13.03;;;4.47;;
3563;SDS011;1796;52.388;13.096;2023-05-20T05:09:48;7.23;;;4.50;;
3563;SDS011;1796;52.388;13.096;2023-05-20T05:12:14;5.23;;;4.40;;
3563;SDS011;1796;52.388;13.096;2023-05-20T05:14:41;7.80;;;4.97;;
3563;SDS011;1796;52.388;13.096;2023-05-20T05:17:08;10.30;;;4.57;;
3563;SDS011;1796;52.388;13.096;2023-05-20T05:19:35;6.60;;;5.40;;
3563;SDS011;1796;52.388;13.096;2023-05-20T05:22:02;6.97;;;4.73;;
3563;SDS011;1796;52.388;13.096;2023-05-20T05:24:30;9.53;;;4.77;;
3563;SDS011;1796;52.388;13.096;2023-05-20T05:26:57;8.30;;;5.20;;
3563;SDS011;1796;52.388;13.096;2023-05-20T05:29:24;11.83;;;5.27;;
3563;SDS011;1796;52.388;13.096;2023-05-20T05:31:51;9.90;;;5.23;;
3563;SDS011;1796;52.388;13.096;2023-05-20T05:34:18;9.00;;;4.47;;
3563;SDS011;1796;52.388;13.096;2023-05-20T05:36:44;6.53;;;5.30;;
3563;SDS011;1796;52.388;13.096;2023-05-20T05:39:11;13.43;;;5.40;;
3563;SDS011;1796;52.388;13.096;2023-05-20T05:41:41;6.77;;;4.57;;
3563;SDS011;1796;52.388;13.096;2023-05-20T05:44:07;19.90;;;4.90;;
3563;SDS011;1796;52.388;13.096;2023-05-20T05:46:34;9.13;;;5.07;;
3563;SDS011;1796;52.388;13.096;2023-05-20T05:49:01;15.00;;;5.43;;
3563;SDS011;1796;52.388;13.096;2023-05-20T05:51:28;6.90;;;4.70;;
3563;SDS011;1796;52.388;13.096;2023-05-20T05:53:55;15.87;;;4.70;;
3563;SDS011;1796;52.388;13.096;2023-05-20T05:56:22;4.83;;;4.40;;
3563;SDS011;1796;52.388;13.096;2023-05-20T05:58:51;11.80;;;5.57;;
3563;SDS011;1796;52.388;13.096;2023-05-20T06:01:18;9.67;;;4.87;;
3563;SDS011;1796;52.388;13.096;2023-05-20T06:03:44;8.50;;;5.23;;
3563;SDS011;1796;52.388;13.096;2023-05-20T06:06:11;10.27;;;5.40;;
3563;SDS011;1796;52.388;13.096;2023-05-20T06:08:39;12.17;;;5.43;;
3563;SDS011;1796;52.388;13.096;2023-05-20T06:11:05;5.57;;;5.00;;
3563;SDS011;1796;52.388;13.096;2023-05-20T06:13:32;8.30;;;4.83;;
3563;SDS011;1796;52.388;13.096;2023-05-20T06:16:02;6.80;;;5.17;;
3563;SDS011;1796;52.388;13.096;2023-05-20T06:18:29;9.40;;;5.30;;
3563;SDS011;1796;52.388;13.096;2023-05-20T06:20:56;7.93;;;5.20;;
3563;SDS011;1796;52.388;13.096;2023-05-20T06:23:24;10.00;;;7.17;;
3563;SDS011;1796;52.388;13.096;2023-05-20T06:25:51;7.30;;;5.10;;
3563;SDS011;1796;52.388;13.096;2023-05-20T06:28:19;8.13;;;5.53;;
3563;SDS011;1796;52.388;13.096;2023-05-20T06:30:46;7.30;;;5.60;;
3563;SDS011;1796;52.388;13.096;2023-05-20T06:33:14;13.70;;;5.30;;
3563;SDS011;1796;52.388;13.096;2023-05-20T06:35:42;7.10;;;5.60;;
3563;SDS011;1796;52.388;13.096;2023-05-20T06:38:09;8.73;;;6.50;;
3563;SDS011;1796;52.388;13.096;2023-05-20T06:40:35;7.07;;;5.63;;
3563;SDS011;1796;52.388;13.096;2023-05-20T06:43:02;27.13;;;5.47;;
3563;SDS011;1796;52.388;13.096;2023-05-20T06:45:29;11.50;;;6.83;;
3563;SDS011;1796;52.388;13.096;2023-05-20T06:47:56;5.87;;;5.27;;
3563;SDS011;1796;52.388;13.096;2023-05-20T06:50:25;13.50;;;6.80;;
3563;SDS011;1796;52.388;13.096;2023-05-20T06:52:53;12.10;;;5.50;;
3563;SDS011;1796;52.388;13.096;2023-05-20T06:55:20;10.80;;;6.30;;
3563;SDS011;1796;52.388;13.096;2023-05-20T06:57:47;7.77;;;5.90;;
3563;SDS011;1796;52.388;13.096;2023-05-20T07:00:14;13.80;;;5.80;;
3563;SDS011;1796;52.388;13.096;2023-05-20T07:02:41;9.57;;;5.80;;
3563;SDS011;1796;52.388;13.096;2023-05-20T07:05:08;10.63;;;6.13;;
3563;SDS011;1796;52.388;13.096;2023-05-20T07:07:37;6.80;;;5.97;;
3563;SDS011;1796;52.388;13.096;2023-05-20T07:10:04;10.20;;;5.63;;
3563;SDS011;1796;52.388;13.096;2023-05-20T07:12:32;6.17;;;4.93;;
3563;SDS011;1796;52.388;13.096;2023-05-20T07:14:59;15.60;;;5.73;;
3563;SDS011;1796;52.388;13.096;2023-05-20T07:17:26;7.37;;;5.30;;
3563;SDS011;1796;52.388;13.096;2023-05-20T07:19:53;11.40;;;5.37;;
3563;SDS011;1796;52.388;13.096;2023-05-20T07:22:20;11.40;;;5.70;;
3563;SDS011;1796;52.388;13.096;2023-05-20T07:24:49;8.50;;;5.73;;
3563;SDS011;1796;52.388;13.096;2023-05-20T07:27:15;13.20;;;5.60;;
3563;SDS011;1796;52.388;13.096;2023-05-20T07:29:42;11.63;;;5.17;;
3563;SDS011;1796;52.388;13.096;2023-05-20T07:32:09;11.13;;;6.03;;
3563;SDS011;1796;52.388;13.096;2023-05-20T07:34:36;8.70;;;5.43;;
3563;SDS011;1796;52.388;13.096;2023-05-20T07:37:03;6.37;;;5.43;;
3563;SDS011;1796;52.388;13.096;2023-05-20T07:39:31;9.33;;;5.60;;
3563;SDS011;1796;52.388;13.096;2023-05-20T07:41:59;8.03;;;5.80;;
3563;SDS011;1796;52.388;13.096;2023-05-20T07:44:26;6.90;;;5.17;;
3563;SDS011;1796;52.388;13.096;2023-05-20T07:46:53;9.23;;;6.57;;
3563;SDS011;1796;52.388;13.096;2023-05-20T07:49:20;10.50;;;5.23;;
3563;SDS011;1796;52.388;13.096;2023-05-20T07:51:47;11.30;;;5.50;;
3563;SDS011;1796;52.388;13.096;2023-05-20T07:54:14;12.73;;;6.90;;
3563;SDS011;1796;52.388;13.096;2023-05-20T07:56:41;9.10;;;5.90;;
3563;SDS011;1796;52.388;13.096;2023-05-20T07:59:09;8.00;;;5.23;;
3563;SDS011;1796;52.388;13.096;2023-05-20T08:01:36;5.97;;;5.40;;
3563;SDS011;1796;52.388;13.096;2023-05-20T08:04:07;10.00;;;6.23;;
3563;SDS011;1796;52.388;13.096;2023-05-20T08:06:34;10.67;;;5.93;;
3563;SDS011;1796;52.388;13.096;2023-05-20T08:09:01;8.57;;;5.80;;
3563;SDS011;1796;52.388;13.096;2023-05-20T08:11:28;10.13;;;5.27;;
3563;SDS011;1796;52.388;13.096;2023-05-20T08:13:55;6.67;;;5.17;;
3563;SDS011;1796;52.388;13.096;2023-05-20T08:16:23;8.77;;;5.37;;
3563;SDS011;1796;52.388;13.096;2023-05-20T08:18:50;8.67;;;5.13;;
3563;SDS011;1796;52.388;13.096;2023-05-20T08:21:17;12.20;;;5.73;;
3563;SDS011;1796;52.388;13.096;2023-05-20T08:23:44;9.90;;;5.23;;
3563;SDS011;1796;52.388;13.096;2023-05-20T08:26:11;6.07;;;4.50;;
3563;SDS011;1796;52.388;13.096;2023-05-20T08:28:38;8.50;;;5.10;;
3563;SDS011;1796;52.388;13.096;2023-05-20T08:31:05;5.43;;;4.93;;
3563;SDS011;1796;52.388;13.096;2023-05-20T08:33:33;8.20;;;6.10;;
3563;SDS011;1796;52.388;13.096;2023-05-20T08:36:00;5.67;;;5.17;;
3563;SDS011;1796;52.388;13.096;2023-05-20T08:38:27;10.03;;;5.80;;
3563;SDS011;1796;52.388;13.096;2023-05-20T08:40:54;5.00;;;4.53;;
3563;SDS011;1796;52.388;13.096;2023-05-20T08:43:22;5.97;;;5.23;;
3563;SDS011;1796;52.388;13.096;2023-05-20T08:45:49;5.60;;;4.80;;
3563;SDS011;1796;52.388;13.096;2023-05-20T08:48:17;14.60;;;4.60;;
3563;SDS011;1796;52.388;13.096;2023-05-20T08:50:47;6.70;;;5.20;;
3563;SDS011;1796;52.388;13.096;2023-05-20T08:53:16;6.40;;;4.97;;
3563;SDS011;1796;52.388;13.096;2023-05-20T08:55:45;13.03;;;4.90;;
3563;SDS011;1796;52.388;13.096;2023-05-20T08:58:17;8.07;;;5.20;;
3563;SDS011;1796;52.388;13.096;2023-05-20T09:00:45;8.80;;;5.10;;
3563;SDS011;1796;52.388;13.096;2023-05-20T09:03:12;5.27;;;4.83;;
3563;SDS011;1796;52.388;13.096;2023-05-20T09:05:39;6.53;;;4.57;;
3563;SDS011;1796;52.388;13.096;2023-05-20T09:08:07;7.03;;;5.87;;
3563;SDS011;1796;52.388;13.096;2023-05-20T09:10:36;8.70;;;5.10;;
3563;SDS011;1796;52.388;13.096;2023-05-20T09:13:04;5.20;;;4.70;;
3563;SDS011;1796;52.388;13.096;2023-05-20T09:15:32;6.87;;;5.17;;
3563;SDS011;1796;52.388;13.096;2023-05-20T09:18:00;5.37;;;4.87;;
3563;SDS011;1796;52.388;13.096;2023-05-20T09:20:28;11.10;;;5.30;;
3563;SDS011;1796;52.388;13.096;2023-05-20T09:22:58;17.27;;;5.20;;
3563;SDS011;1796;52.388;13.096;2023-05-20T09:25:27;6.00;;;5.20;;
3563;SDS011;1796;52.388;13.096;2023-05-20T09:27:54;7.87;;;5.53;;
3563;SDS011;1796;52.388;13.096;2023-05-20T09:30:21;6.10;;;5.50;;
3563;SDS011;1796;52.388;13.096;2023-05-20T09:32:51;9.63;;;4.77;;
3563;SDS011;1796;52.388;13.096;2023-05-20T09:35:19;7.67;;;6.50;;
3563;SDS011;1796;52.388;13.096;2023-05-20T09:37:47;8.20;;;5.37;;
3563;SDS011;1796;52.388;13.096;2023-05-20T09:40:16;9.63;;;5.27;;
3563;SDS011;1796;52.388;13.096;2023-05-20T09:42:49;9.67;;;6.87;;
3563;SDS011;1796;52.388;13.096;2023-05-20T09:45:18;8.13;;;5.87;;
3563;SDS011;1796;52.388;13.096;2023-05-20T09:47:46;7.00;;;6.30;;
3563;SDS011;1796;52.388;13.096;2023-05-20T09:50:15;7.60;;;6.83;;
3563;SDS011;1796;52.388;13.096;2023-05-20T09:52:44;8.27;;;6.57;;
3563;SDS011;1796;52.388;13.096;2023-05-20T09:55:12;6.77;;;6.10;;
3563;SDS011;1796;52.388;13.096;2023-05-20T09:57:41;8.63;;;6.07;;
3563;SDS011;1796;52.388;13.096;2023-05-20T10:00:10;10.60;;;6.43;;
3563;SDS011;1796;52.388;13.096;2023-05-20T10:02:40;10.10;;;6.67;;
3563;SDS011;1796;52.388;13.096;2023-05-20T10:05:10;8.70;;;6.37;;
3563;SDS011;1796;52.388;13.096;2023-05-20T10:08:06;7.20;;;6.10;;
3563;SDS011;1796;52.388;13.096;2023-05-20T10:10:48;15.60;;;6.27;;
3563;SDS011;1796;52.388;13.096;2023-05-20T10:13:24;9.60;;;6.37;;
3563;SDS011;1796;52.388;13.096;2023-05-20T10:16:08;8.03;;;6.30;;
3563;SDS011;1796;52.388;13.096;2023-05-20T10:18:52;9.03;;;6.40;;
3563;SDS011;1796;52.388;13.096;2023-05-20T10:21:23;8.10;;;6.83;;
3563;SDS011;1796;52.388;13.096;2023-05-20T10:23:50;8.50;;;6.33;;
3563;SDS011;1796;52.388;13.096;2023-05-20T10:26:18;7.50;;;6.30;;
3563;SDS011;1796;52.388;13.096;2023-05-20T10:28:45;10.27;;;6.20;;
3563;SDS011;1796;52.388;13.096;2023-05-20T10:31:20;8.10;;;6.53;;
3563;SDS011;1796;52.388;13.096;2023-05-20T10:33:48;6.67;;;5.90;;
3563;SDS011;1796;52.388;13.096;2023-05-20T10:36:21;8.90;;;7.03;;
3563;SDS011;1796;52.388;13.096;2023-05-20T10:38:51;8.97;;;7.37;;
3563;SDS011;1796;52.388;13.096;2023-05-20T10:41:22;9.37;;;7.10;;
3563;SDS011;1796;52.388;13.096;2023-05-20T10:43:59;7.60;;;6.47;;
3563;SDS011;1796;52.388;13.096;2023-05-20T10:46:28;9.30;;;6.57;;
3563;SDS011;1796;52.388;13.096;2023-05-20T10:48:56;11.43;;;7.30;;
3563;SDS011;1796;52.388;13.096;2023-05-20T10:51:23;10.03;;;7.13;;
3563;SDS011;1796;52.388;13.096;2023-05-20T10:53:53;8.23;;;6.60;;
3563;SDS011;1796;52.388;13.096;2023-05-20T10:56:21;9.27;;;5.80;;
3563;SDS011;1796;52.388;13.096;2023-05-20T10:58:49;7.53;;;6.70;;
3563;SDS011;1796;52.388;13.096;2023-05-20T11:01:17;9.27;;;7.10;;
3563;SDS011;1796;52.388;13.096;2023-05-20T11:03:50;11.77;;;6.40;;
3563;SDS011;1796;52.388;13.096;2023-05-20T11:06:17;9.20;;;7.60;;
3563;SDS011;1796;52.388;13.096;2023-05-20T11:08:44;11.63;;;6.37;;
3563;SDS011;1796;52.388;13.096;2023-05-20T11:11:12;11.93;;;5.60;;
3563;SDS011;1796;52.388;13.096;2023-05-20T11:13:39;7.47;;;6.77;;
3563;SDS011;1796;52.388;13.096;2023-05-20T11:16:07;9.93;;;7.63;;
3563;SDS011;1796;52.388;13.096;2023-05-20T11:18:34;6.83;;;6.20;;
3563;SDS011;1796;52.388;13.096;2023-05-20T11:21:03;8.27;;;6.67;;
3563;SDS011;1796;52.388;13.096;2023-05-20T11:23:30;8.57;;;6.60;;
3563;SDS011;1796;52.388;13.096;2023-05-20T11:25:57;13.33;;;7.00;;
3563;SDS011;1796;52.388;13.096;2023-05-20T11:28:24;10.60;;;6.53;;
3563;SDS011;1796;52.388;13.096;2023-05-20T11:30:51;8.40;;;5.97;;
3563;SDS011;1796;52.388;13.096;2023-05-20T11:33:18;7.03;;;6.00;;
3563;SDS011;1796;52.388;13.096;2023-05-20T11:35:46;9.23;;;6.67;;
3563;SDS011;1796;52.388;13.096;2023-05-20T11:38:15;11.53;;;7.43;;
3563;SDS011;1796;52.388;13.096;2023-05-20T11:40:42;7.77;;;6.53;;
3563;SDS011;1796;52.388;13.096;2023-05-20T11:43:10;12.03;;;7.03;;
3563;SDS011;1796;52.388;13.096;2023-05-20T11:45:38;10.07;;;6.53;;
3563;SDS011;1796;52.388;13.096;2023-05-20T11:48:06;9.13;;;7.30;;
3563;SDS011;1796;52.388;13.096;2023-05-20T11:50:34;10.10;;;7.27;;
3563;SDS011;1796;52.388;13.096;2023-05-20T11:53:03;9.73;;;7.40;;
3563;SDS011;1796;52.388;13.096;2023-05-20T11:55:32;12.43;;;7.10;;
3563;SDS011;1796;52.388;13.096;2023-05-20T11:58:00;19.13;;;7.40;;
3563;SDS011;1796;52.388;13.096;2023-05-20T12:00:28;7.13;;;6.47;;
3563;SDS011;1796;52.388;13.096;2023-05-20T12:02:55;12.00;;;7.80;;
3563;SDS011;1796;52.388;13.096;2023-05-20T12:05:21;10.17;;;7.23;;
3563;SDS011;1796;52.388;13.096;2023-05-20T12:07:48;9.13;;;7.87;;
3563;SDS011;1796;52.388;13.096;2023-05-20T12:10:15;11.60;;;7.50;;
3563;SDS011;1796;52.388;13.096;2023-05-20T12:12:44;10.60;;;7.97;;
3563;SDS011;1796;52.388;13.096;2023-05-20T12:15:11;8.27;;;6.73;;
3563;SDS011;1796;52.388;13.096;2023-05-20T12:17:44;14.00;;;7.50;;
3563;SDS011;1796;52.388;13.096;2023-05-20T12:20:13;7.73;;;6.90;;
3563;SDS011;1796;52.388;13.096;2023-05-20T12:22:40;9.23;;;7.60;;
3563;SDS011;1796;52.388;13.096;2023-05-20T12:25:08;9.30;;;7.67;;
3563;SDS011;1796;52.388;13.096;2023-05-20T12:27:36;10.17;;;7.63;;
3563;SDS011;1796;52.388;13.096;2023-05-20T12:30:05;12.10;;;6.40;;
3563;SDS011;1796;52.388;13.096;2023-05-20T12:32:33;16.63;;;7.47;;
3563;SDS011;1796;52.388;13.096;2023-05-20T12:35:00;17.03;;;7.70;;
3563;SDS011;1796;52.388;13.096;2023-05-20T12:37:27;11.60;;;8.50;;
3563;SDS011;1796;52.388;13.096;2023-05-20T12:39:54;11.03;;;7.30;;
3563;SDS011;1796;52.388;13.096;2023-05-20T12:42:21;10.70;;;6.43;;
3563;SDS011;1796;52.388;13.096;2023-05-20T12:44:48;8.90;;;6.83;;
3563;SDS011;1796;52.388;13.096;2023-05-20T12:47:16;10.33;;;6.70;;
3563;SDS011;1796;52.388;13.096;2023-05-20T12:49:43;8.43;;;6.30;;
3563;SDS011;1796;52.388;13.096;2023-05-20T12:52:10;9.70;;;7.00;;
3563;SDS011;1796;52.388;13.096;2023-05-20T12:54:37;7.43;;;6.73;;
3563;SDS011;1796;52.388;13.096;2023-05-20T12:57:03;10.37;;;7.37;;
3563;SDS011;1796;52.388;13.096;2023-05-20T12:59:31;13.13;;;8.40;;
3563;SDS011;1796;52.388;13.096;2023-05-20T13:01:57;8.00;;;7.20;;
3563;SDS011;1796;52.388;13.096;2023-05-20T13:04:26;11.73;;;6.87;;
3563;SDS011;1796;52.388;13.096;2023-05-20T13:06:52;12.13;;;6.70;;
3563;SDS011;1796;52.388;13.096;2023-05-20T13:09:19;12.13;;;7.87;;
3563;SDS011;1796;52.388;13.096;2023-05-20T13:11:46;12.00;;;8.00;;
3563;SDS011;1796;52.388;13.096;2023-05-20T13:14:13;7.90;;;7.07;;
3563;SDS011;1796;52.388;13.096;2023-05-20T13:16:40;9.73;;;7.63;;
3563;SDS011;1796;52.388;13.096;2023-05-20T13:19:07;8.40;;;7.27;;
3563;SDS011;1796;52.388;13.096;2023-05-20T13:21:35;8.53;;;7.37;;
3563;SDS011;1796;52.388;13.096;2023-05-20T13:24:02;13.50;;;8.10;;
3563;SDS011;1796;52.388;13.096;2023-05-20T13:26:29;11.17;;;7.87;;
3563;SDS011;1796;52.388;13.096;2023-05-20T13:28:56;10.10;;;8.30;;
3563;SDS011;1796;52.388;13.096;2023-05-20T13:31:23;11.33;;;8.10;;
3563;SDS011;1796;52.388;13.096;2023-05-20T13:33:50;13.20;;;7.50;;
3563;SDS011;1796;52.388;13.096;2023-05-20T13:36:19;12.93;;;8.00;;
3563;SDS011;1796;52.388;13.096;2023-05-20T13:38:47;11.50;;;8.10;;
3563;SDS011;1796;52.388;13.096;2023-05-20T13:41:14;9.50;;;7.43;;
3563;SDS011;1796;52.388;13.096;2023-05-20T13:43:41;11.53;;;6.80;;
3563;SDS011;1796;52.388;13.096;2023-05-20T13:46:08;8.20;;;7.13;;
3563;SDS011;1796;52.388;13.096;2023-05-20T13:48:35;8.07;;;6.70;;
3563;SDS011;1796;52.388;13.096;2023-05-20T13:51:01;10.67;;;8.17;;
3563;SDS011;1796;52.388;13.096;2023-05-20T13:53:28;10.47;;;7.07;;
3563;SDS011;1796;52.388;13.096;2023-05-20T13:55:57;9.07;;;7.73;;
3563;SDS011;1796;52.388;13.096;2023-05-20T13:58:24;11.33;;;6.97;;
3563;SDS011;1796;52.388;13.096;2023-05-20T14:00:50;8.53;;;7.53;;
3563;SDS011;1796;52.388;13.096;2023-05-20T14:03:18;8.17;;;7.37;;
3563;SDS011;1796;52.388;13.096;2023-05-20T14:05:45;11.03;;;7.30;;
3563;SDS011;1796;52.388;13.096;2023-05-20T14:08:12;9.70;;;7.10;;
3563;SDS011;1796;52.388;13.096;2023-05-20T14:10:39;10.63;;;8.10;;
3563;SDS011;1796;52.388;13.096;2023-05-20T14:13:07;8.07;;;7.10;;
3563;SDS011;1796;52.388;13.096;2023-05-20T14:15:34;10.93;;;6.93;;
3563;SDS011;1796;52.388;13.096;2023-05-20T14:18:01;12.50;;;7.00;;
3563;SDS011;1796;52.388;13.096;2023-05-20T14:20:28;12.70;;;7.13;;
3563;SDS011;1796;52.388;13.096;2023-05-20T14:22:55;8.53;;;6.80;;
3563;SDS011;1796;52.388;13.096;2023-05-20T14:25:24;8.83;;;6.50;;
3563;SDS011;1796;52.388;13.096;2023-05-20T14:27:51;7.67;;;6.90;;
3563;SDS011;1796;52.388;13.096;2023-05-20T14:30:20;7.13;;;6.37;;
3563;SDS011;1796;52.388;13.096;2023-05-20T14:32:47;9.33;;;6.30;;
3563;SDS011;1796;52.388;13.096;2023-05-20T14:35:14;8.90;;;6.70;;
3563;SDS011;1796;52.388;13.096;2023-05-20T14:37:42;14.47;;;6.43;;
3563;SDS011;1796;52.388;13.096;2023-05-20T14:40:09;10.03;;;7.03;;
3563;SDS011;1796;52.388;13.096;2023-05-20T14:42:36;11.93;;;6.77;;
3563;SDS011;1796;52.388;13.096;2023-05-20T14:45:03;6.20;;;5.60;;
3563;SDS011;1796;52.388;13.096;2023-05-20T14:47:32;8.50;;;6.63;;
3563;SDS011;1796;52.388;13.096;2023-05-20T14:49:59;6.77;;;6.07;;
3563;SDS011;1796;52.388;13.096;2023-05-20T14:52:26;7.13;;;6.40;;
3563;SDS011;1796;52.388;13.096;2023-05-20T14:54:53;8.97;;;6.20;;
3563;SDS011;1796;52.388;13.096;2023-05-20T14:57:20;9.67;;;6.90;;
3563;SDS011;1796;52.388;13.096;2023-05-20T14:59:47;8.30;;;6.63;;
3563;SDS011;1796;52.388;13.096;2023-05-20T15:02:16;8.53;;;6.70;;